Flight Track Log - Related Links

Times and Time Zones

All times are in EDT time to prevent confusion due to time zone crossing. See the FLG4262 flight status page for this flight to view local times or setup timezone preferences in your user account.

Time Position Orientation Groundspeed Altitude Reporting Facility
EDT Latitude Longitude Course Direction KTS MPH feet Rate Location/Type
Fri 05:37:41 PM 42.2653 -76.1172 292° West 212 244 6,100  Level New Center
Fri 05:38:41 PM 42.2847 -76.1914 290° West 250 288 8,100 2,300 Climbing New Center
Fri 05:39:41 PM 42.3097 -76.2806 291° West 255 293 10,700 1,733 Climbing New Center
Fri 05:40:56 PM 42.3431 -76.4017 290° West 293 337 12,000 1,270 Climbing Cleveland Center
Fri 05:41:58 PM 42.3753 -76.5167 291° West 322 371 13,600 1,742 Climbing Cleveland Center
Fri 05:43:00 PM 42.4083 -76.6372 290° West 338 389 15,600 1,935 Climbing Cleveland Center
Fri 05:44:02 PM 42.4392 -76.7539 290° West 336 387 17,600 1,984 Climbing Cleveland Center
Fri 05:45:04 PM 42.4756 -76.8911 290° West 328 377 19,700 1,597 Climbing Cleveland Center
Fri 05:46:06 PM 42.5069 -77.0044 291° West 325 374 20,900 1,065 Climbing Cleveland Center
Fri 05:47:08 PM 42.5175 -77.1275 277° West 329 379 21,900 968 Climbing Cleveland Center
Fri 05:48:10 PM 42.5264 -77.2539 275° West 333 383 22,900 968 Climbing Cleveland Center
Fri 05:49:12 PM 42.5347 -77.3814 275° West 335 386 23,900 1,008 Climbing Cleveland Center
Fri 05:50:15 PM 42.5433 -77.5186 275° West 336 387 25,000 960 Climbing Cleveland Center
Fri 05:51:17 PM 42.5517 -77.6456 275° West 337 388 25,900 774 Climbing Cleveland Center
Fri 05:52:19 PM 42.5594 -77.7736 275° West 337 388 26,600 629 Climbing Cleveland Center
Fri 05:53:21 PM 42.5689 -77.9297 275° West 346 398 27,200 532 Climbing Cleveland Center
Fri 05:54:23 PM 42.5764 -78.0631 274° West 350 403 27,700 387 Climbing Cleveland Center
Fri 05:55:25 PM 42.5842 -78.1969 275° West 354 407 28,000 145 Climbing Cleveland Center
Fri 05:56:27 PM 42.5925 -78.3328 275° West 355 409 28,000  Level Cleveland Center
Fri 05:57:29 PM 42.5994 -78.4703 274° West 361 415 28,000  Level Cleveland Center
Fri 05:58:31 PM 42.6075 -78.6092 275° West 367 422 28,000  Level Cleveland Center
Fri 05:59:33 PM 42.6164 -78.7733 274° West 365 420 28,000  Level Cleveland Center
Fri 06:00:36 PM 42.6233 -78.9111 274° West 366 421 28,000  Level Cleveland Center
Fri 06:01:38 PM 42.6306 -79.0492 274° West 367 422 28,000  Level Cleveland Center
Fri 06:02:40 PM 42.6372 -79.1881 274° West 367 422 28,000  Level Cleveland Center
Fri 06:03:42 PM 42.6439 -79.3258 274° West 367 422 28,000  Level Cleveland Center
Fri 06:04:44 PM 42.6506 -79.4647 274° West 368 423 28,000  Level Cleveland Center
Fri 06:05:46 PM 42.6575 -79.6342 273° West 372 428 28,000  Level Cleveland Center
Fri 06:06:48 PM 42.6639 -79.7783 273° West 381 438 28,000  Level Cleveland Center
Fri 06:07:50 PM 42.6697 -79.9219 273° West 380 437 28,000  Level Cleveland Center
Fri 06:08:52 PM 42.6753 -80.0600 273° West 382 440 28,000  Level Cleveland Center
Fri 06:09:54 PM 42.6822 -80.2286 273° West 381 438 28,000  Level Cleveland Center
Fri 06:10:56 PM 42.6881 -80.3711 273° West 381 438 28,000  Level Cleveland Center
Fri 06:11:59 PM 42.6933 -80.5167 273° West 380 437 28,000  Level Cleveland Center
Fri 06:13:01 PM 42.6975 -80.6586 272° West 379 436 28,000 -48 Level Cleveland Center
Fri 06:14:03 PM 42.7033 -80.8047 273° West 386 444 27,900 -581 Descending Cleveland Center
Fri 06:15:05 PM 42.7008 -80.9367 269° West 352 405 26,800 -1,016 Descending Cleveland Center
Fri 06:16:07 PM 42.6858 -81.0708 261° West 351 404 25,800 -1,065 Descending Cleveland Center
Fri 06:17:09 PM 42.6681 -81.2286 261° West 358 412 24,600 -1,065 Descending Cleveland Center
Fri 06:18:11 PM 42.6539 -81.3542 261° West 341 392 23,600 -968 Descending Cleveland Center
Fri 06:19:13 PM 42.6383 -81.4775 260° West 333 383 22,600 -968 Descending Cleveland Center
Fri 06:20:15 PM 42.6236 -81.6017 261° West 333 383 21,600 -968 Descending Cleveland Center
Fri 06:21:17 PM 42.6081 -81.7319 261° West 343 395 20,600 -1,016 Descending Cleveland Center
Fri 06:22:19 PM 42.5903 -81.8800 261° West 353 406 19,500 -1,016 Descending Cleveland Center
Fri 06:23:21 PM 42.5750 -82.0083 261° West 351 404 18,500 -980 Descending Cleveland Center
Fri 06:23:57 PM 42.5647 -82.0839 260° West 351 404 17,900 -857 Descending Cleveland Center
Fri 06:24:24 PM 42.5603 -82.1317 263° West 336 387 17,600 -1,102 Descending Cleveland Center
Fri 06:24:46 PM 42.5511 -82.1925 258° West 337 388 17,000 -1,065 Descending Cleveland Center
Fri 06:25:26 PM 42.5447 -82.2564 262° West 334 384 16,500 -964 Descending Cleveland Center
Fri 06:25:42 PM 42.5369 -82.3097 259° West 339 390 16,100 -968 Descending Cleveland Center
Fri 06:26:28 PM 42.5286 -82.3825 261° West 335 386 15,500 -1,180 Descending Cleveland Center
Fri 06:26:43 PM 42.5222 -82.4322 260° West 330 380 14,900 -3,000 Descending Cleveland Center
Fri 06:27:30 PM 42.5117 -82.5267 261° West 330 380 12,400 -2,852 Descending Cleveland Center
Fri 06:27:44 PM 42.5028 -82.5572 248° West 311 358 12,000 -1,452 Descending Cleveland Center
Fri 06:28:32 PM 42.4775 -82.6319 245° Southwest 313 360 10,900 -1,324 Descending Cleveland Center
Fri 06:28:52 PM 42.4633 -82.6708 244° Southwest 306 352 10,500 -774 Descending Cleveland Center
Fri 06:29:34 PM 42.4447 -82.7253 245° Southwest 284 327 10,100 -655 Descending Cleveland Center
Fri 06:29:47 PM 42.4369 -82.7494 246° West 217 250 9,900 -968 Descending Cleveland Center
Fri 06:30:36 PM 42.4206 -82.7992 246° West 226 260 9,100 -1,075 Descending Cleveland Center
Fri 06:30:54 PM 42.4308 -82.8333 292° West 215 247 8,700 -968 Descending Cleveland Center
Fri 06:31:38 PM 42.4414 -82.8736 290° West 216 249 8,100 -689 Descending Cleveland Center
Fri 06:31:55 PM 42.4483 -82.9092 285° West 211 243 8,000 -97 Descending Cleveland Center
Fri 06:32:40 PM 42.4592 -82.9500 290° West 215 247 8,000  Level Cleveland Center
Fri 06:32:57 PM 42.4678 -82.9853 288° West 217 250 8,000  Level Cleveland Center
Fri 06:33:42 PM 42.4797 -83.0372 287° West 208 239 8,000  Level Cleveland Center
Fri 06:33:58 PM 42.4878 -83.0533 304° West 177 204 8,000  Level Cleveland Center
Fri 06:34:45 PM 42.5061 -83.0947 301° West 184 212 8,000 -295 Level Cleveland Center
Fri 06:34:59 PM 42.5017 -83.1203 257° West 199 229 7,700 -1,355 Descending Cleveland Center
Fri 06:35:47 PM 42.4839 -83.1625 240° Southwest 204 235 6,600 -1,574 Descending Cleveland Center
Fri 06:36:00 PM 42.4661 -83.1747 207° Southwest 195 224 6,100 -1,355 Descending Cleveland Center
Fri 06:36:49 PM 42.4386 -83.1958 210° Southwest 189 217 5,200 -1,377 Descending Cleveland Center
Fri 06:37:01 PM 42.4192 -83.2106 209° Southwest 191 220 4,700 -1,065 Descending Cleveland Center
Fri 06:37:51 PM 42.3928 -83.2314 210° Southwest 189 217 4,100 -968 Descending Cleveland Center
Fri 06:38:03 PM 42.3728 -83.2439 205° Southwest 188 216 3,700 -871 Descending Cleveland Center
Fri 06:38:53 PM 42.3472 -83.2644 211° Southwest 188 216 3,200 -885 Descending Cleveland Center
Fri 06:39:04 PM 42.3283 -83.2772 207° Southwest 183 211 2,800 -1,167 Descending Cleveland Center
Fri 06:40:05 PM 42.2858 -83.3106 210° Southwest 164 189 1,800 -796 Descending Cleveland Center
Fri 06:40:57 PM 42.2592 -83.3300 208° Southwest 161 185 1,300 -421 Descending Cleveland Center
Fri 06:41:59 PM 42.2272 -83.3539 209° Southwest 149 171 1,000 -290 Descending Cleveland Center

Login

Don't have an account? Register now (free) for customized features, flight alerts, and more!